Aquagenie — D5GY8 — position and weather

sailwx.info

Track history (hours):
 
Tides and Currents Weather Stations Pressure Air Temp Water Temp Dewpoint Dewpoint Depression Visibility Wind Speed Wind Dir Waves Ship Positions

Aquagenie

Last reported at 2018-Feb-15 09:24 UTC. Time now 2018-Feb-24 12:20 UTC.
Position S 19°27' E 116°52'.
Warning: this ship's position is 9 days out of date.

Length 289 m; draft 6.7 m.

Type: Cargo ship. MMSI: 636016607.

Date/timePositionNaut miles runAvg speedWind from/ knotsBaromVisibWave heightAir tempDewpointWater temp
2018-Feb-15 09:24S 19°27' E 116°52'1411.0
2018-Feb-15 08:10S 19°40' E 116°52'211.1
2018-Feb-15 08:00S 19°42' E 116°52'611.2
2018-Feb-15 07:29S 19°48' E 116°52'611.2
2018-Feb-15 06:58S 19°54' E 116°51'511.2
2018-Feb-15 06:29S 19°59' E 116°50'511.1
2018-Feb-15 06:00S 20°04' E 116°48'611.1
2018-Feb-15 05:28S 20°10' E 116°47'511.0
2018-Feb-15 04:59S 20°15' E 116°46'510.3
2018-Feb-15 04:28S 20°20' E 116°43'9 9.5
2018-Feb-15 03:34S 20°28' E 116°43'1 9.0
2018-Feb-15 03:26S 20°30' E 116°43'4 9.0
2018-Feb-15 03:00S 20°33' E 116°42'5 0.1
2018-Feb-13 05:45S 20°38' E 116°43'4 7.1
2018-Feb-13 05:12S 20°34' E 116°42'211.1
2018-Feb-13 05:00S 20°32' E 116°43'11 6.4
2018-Feb-13 03:15S 20°21' E 116°43'6 3.9
2018-Feb-13 01:45S 20°15' E 116°45'  
Track history (hours):
 
Tides and Currents Weather Stations Pressure Air Temp Water Temp Dewpoint Dewpoint Depression Visibility Wind Speed Wind Dir Waves Ship Positions

Aquagenie

Last reported at 2018-Feb-15 09:24 UTC. Time now 2018-Feb-24 12:20 UTC.
Position S 19°27' E 116°52'.
Warning: this ship's position is 9 days out of date.

Length 289 m; draft 6.7 m.

Type: Cargo ship. MMSI: 636016607.

Date/timePositionNaut miles runAvg speedWind from/ knotsBaromVisibWave heightAir tempDewpointWater temp
2018-Feb-15 09:24S 19°27' E 116°52'1411.0
2018-Feb-15 08:10S 19°40' E 116°52'211.1
2018-Feb-15 08:00S 19°42' E 116°52'611.2
2018-Feb-15 07:29S 19°48' E 116°52'611.2
2018-Feb-15 06:58S 19°54' E 116°51'511.2
2018-Feb-15 06:29S 19°59' E 116°50'511.1
2018-Feb-15 06:00S 20°04' E 116°48'611.1
2018-Feb-15 05:28S 20°10' E 116°47'511.0
2018-Feb-15 04:59S 20°15' E 116°46'510.3
2018-Feb-15 04:28S 20°20' E 116°43'9 9.5
2018-Feb-15 03:34S 20°28' E 116°43'1 9.0
2018-Feb-15 03:26S 20°30' E 116°43'4 9.0
2018-Feb-15 03:00S 20°33' E 116°42'5 0.1
2018-Feb-13 05:45S 20°38' E 116°43'4 7.1
2018-Feb-13 05:12S 20°34' E 116°42'211.1
2018-Feb-13 05:00S 20°32' E 116°43'11 6.4
2018-Feb-13 03:15S 20°21' E 116°43'6 3.9
2018-Feb-13 01:45S 20°15' E 116°45'  

Dump ship's entire track history